Time;durP1;ratioP1;P1;durP2;ratioP2;P2;SDS_P1;SDS_P2;PMS_P1;PMS_P2;Temp;Humidity;BMP_temperature;BMP_pressure;BME280_temperature;BME280_humidity;BME280_pressure;Samples;Min_cycle;Max_cycle;Signal;HPM_P1;HPM_P2
2023/09/07 00:00:14;;;;;;;8.93;4.07;;;18.70;95.10;;;;;;20748778;28;20755;-73
2023/09/07 00:10:17;;;;;;;7.23;3.90;;;18.60;95.40;;;;;;20748480;28;20217;-72
2023/09/07 00:20:21;;;;;;;8.83;3.87;;;18.50;95.70;;;;;;20748489;28;20614;-73
2023/09/07 00:30:23;;;;;;;5.93;4.00;;;18.50;96.10;;;;;;20747785;28;20204;-73
2023/09/07 00:40:26;;;;;;;4.70;3.97;;;18.30;96.30;;;;;;20750270;28;20236;-73
2023/09/07 00:50:28;;;;;;;4.17;3.77;;;18.20;96.60;;;;;;20763173;28;20265;-74
2023/09/07 01:00:29;;;;;;;10.53;4.07;;;18.10;96.80;;;;;;20762090;28;20244;-74
2023/09/07 01:10:31;;;;;;;6.93;4.10;;;18.10;97.10;;;;;;20761538;28;20296;-74
2023/09/07 01:20:34;;;;;;;7.83;4.60;;;18.00;97.30;;;;;;20761104;28;20241;-74
2023/09/07 01:30:38;;;;;;;9.17;4.77;;;18.00;97.60;;;;;;20759914;28;20202;-73
2023/09/07 01:40:40;;;;;;;10.03;4.43;;;17.90;97.80;;;;;;20771239;28;20758;-70
2023/09/07 01:50:42;;;;;;;6.27;4.40;;;17.90;97.80;;;;;;20759373;28;20326;-72
2023/09/07 02:00:43;;;;;;;7.80;4.53;;;17.70;98.10;;;;;;20757755;28;20478;-75
2023/09/07 02:10:45;;;;;;;7.93;4.40;;;17.70;98.20;;;;;;20756933;28;20220;-75
2023/09/07 02:20:47;;;;;;;5.63;4.63;;;17.60;98.50;;;;;;20769297;28;20272;-74
2023/09/07 02:30:48;;;;;;;6.93;4.30;;;17.40;98.50;;;;;;20755468;28;20288;-71
2023/09/07 02:40:50;;;;;;;6.93;4.57;;;17.30;98.80;;;;;;20754397;28;20310;-73
2023/09/07 02:50:52;;;;;;;6.57;4.77;;;17.30;99.00;;;;;;20754090;28;20801;-72
2023/09/07 03:00:55;;;;;;;9.73;4.80;;;17.20;99.20;;;;;;20752961;28;20248;-71
2023/09/07 03:10:56;;;;;;;5.63;4.47;;;17.10;99.20;;;;;;20734864;28;20660;-74
2023/09/07 03:21:00;;;;;;;6.83;5.00;;;17.00;99.30;;;;;;20751856;28;20261;-73
2023/09/07 03:31:02;;;;;;;8.30;4.83;;;15.80;98.90;;;;;;20750874;28;20212;-74
2023/09/07 03:41:04;;;;;;;11.60;5.20;;;16.90;99.60;;;;;;20750266;28;20233;-73
2023/09/07 03:51:06;;;;;;;11.43;5.40;;;16.80;99.60;;;;;;20749796;28;20228;-73
2023/09/07 04:01:08;;;;;;;13.57;7.87;;;16.80;99.70;;;;;;20748955;28;20244;-72
2023/09/07 04:11:10;;;;;;;10.87;5.20;;;16.60;99.90;;;;;;20748732;28;20259;-73
2023/09/07 04:21:12;;;;;;;12.53;5.17;;;16.60;99.90;;;;;;20748046;28;20708;-72
2023/09/07 04:31:14;;;;;;;7.30;5.27;;;16.50;99.90;;;;;;20747564;28;20223;-72
2023/09/07 04:41:16;;;;;;;6.50;5.10;;;16.40;99.90;;;;;;20747274;28;20236;-72
2023/09/07 04:51:17;;;;;;;16.03;5.60;;;16.30;99.90;;;;;;20747135;28;20279;-72
2023/09/07 05:01:19;;;;;;;10.57;5.83;;;16.40;99.90;;;;;;20746464;28;20237;-71
2023/09/07 05:11:21;;;;;;;12.47;5.80;;;16.40;99.90;;;;;;20746993;28;20207;-70
2023/09/07 05:21:22;;;;;;;15.97;5.90;;;16.40;99.90;;;;;;20746936;28;20239;-71
2023/09/07 05:31:24;;;;;;;17.30;6.33;;;16.60;99.90;;;;;;20767131;28;20233;-70
2023/09/07 05:41:28;;;;;;;21.60;6.50;;;16.60;99.90;;;;;;20794063;28;20603;-71
2023/09/07 05:51:30;;;;;;;17.60;7.90;;;16.60;99.90;;;;;;20803040;28;20270;-71
2023/09/07 06:01:32;;;;;;;14.97;6.70;;;16.80;99.90;;;;;;20838105;28;20585;-70
2023/09/07 06:11:34;;;;;;;11.80;6.37;;;16.90;99.90;;;;;;20838691;28;20211;-70
2023/09/07 06:21:36;;;;;;;10.80;6.43;;;17.00;99.90;;;;;;20838221;28;20607;-70
2023/09/07 06:31:38;;;;;;;12.17;6.83;;;17.20;99.90;;;;;;20837164;28;20207;-70
2023/09/07 06:41:40;;;;;;;21.27;10.40;;;17.30;99.90;;;;;;20835590;28;20232;-70
2023/09/07 06:51:42;;;;;;;15.60;7.10;;;17.60;99.90;;;;;;20835348;28;20318;-70
2023/09/07 07:01:43;;;;;;;12.90;8.20;;;17.90;99.90;;;;;;20834558;28;20236;-70
2023/09/07 07:11:45;;;;;;;14.97;7.87;;;18.20;99.90;;;;;;20833811;28;20317;-71
2023/09/07 07:21:48;;;;;;;12.63;8.00;;;18.40;99.90;;;;;;20833280;28;20228;-71
2023/09/07 07:31:49;;;;;;;11.90;7.53;;;18.70;99.60;;;;;;20832277;28;20211;-70
2023/09/07 07:41:51;;;;;;;12.20;7.70;;;19.10;99.30;;;;;;20831799;28;20236;-70
2023/09/07 07:51:55;;;;;;;14.40;7.17;;;19.50;99.00;;;;;;20830462;28;20324;-70
2023/09/07 08:01:57;;;;;;;12.13;7.07;;;19.90;98.50;;;;;;20830378;28;20232;-70
2023/09/07 08:12:02;;;;;;;7.87;6.07;;;20.30;98.00;;;;;;20831159;28;20572;-70
2023/09/07 08:22:05;;;;;;;8.03;6.17;;;20.70;97.50;;;;;;20829699;28;20267;-71
2023/09/07 08:32:08;;;;;;;6.83;5.30;;;21.00;96.90;;;;;;20829392;28;20201;-70
2023/09/07 08:42:10;;;;;;;9.77;5.30;;;21.30;96.20;;;;;;20811323;28;20243;-70
2023/09/07 08:52:15;;;;;;;5.70;4.70;;;21.50;95.40;;;;;;20828150;28;20286;-71
2023/09/07 09:02:16;;;;;;;8.97;4.50;;;21.80;94.50;;;;;;20832894;28;20280;-71
2023/09/07 09:12:18;;;;;;;13.87;5.33;;;22.20;93.40;;;;;;20843852;28;20592;-71
2023/09/07 09:22:20;;;;;;;8.33;4.20;;;22.50;92.00;;;;;;20842029;28;20236;-70
2023/09/07 09:32:22;;;;;;;11.77;4.30;;;22.70;90.80;;;;;;20842135;28;20287;-71
2023/09/07 09:42:25;;;;;;;9.20;4.90;;;22.90;89.10;;;;;;20841357;28;20699;-71
2023/09/07 09:52:27;;;;;;;11.63;4.90;;;23.20;87.00;;;;;;20840109;28;20232;-70
2023/09/07 10:02:29;;;;;;;5.47;4.50;;;23.50;84.80;;;;;;20839457;28;20240;-70
2023/09/07 10:12:42;;;;;;;5.97;4.20;;;23.70;83.10;;;;;;20837920;28;20289;-70
2023/09/07 10:22:45;;;;;;;10.03;4.00;;;24.00;80.60;;;;;;20837997;28;20601;-70
2023/09/07 10:32:46;;;;;;;7.63;4.07;;;24.20;78.20;;;;;;20837461;28;20215;-70
2023/09/07 10:42:48;;;;;;;4.05;3.65;;;24.40;76.00;;;;;;20835711;28;20319;-70
2023/09/07 10:52:50;;;;;;;7.03;4.10;;;24.60;73.90;;;;;;20834787;28;20225;-71
2023/09/07 11:02:52;;;;;;;4.27;3.83;;;24.80;71.90;;;;;;20835012;28;20275;-71
2023/09/07 11:12:54;;;;;;;10.52;3.78;;;25.00;69.70;;;;;;20834014;28;20275;-70
2023/09/07 11:22:55;;;;;;;4.57;3.75;;;25.10;68.10;;;;;;20832927;28;20246;-70
2023/09/07 11:33:07;;;;;;;6.50;3.40;;;25.30;66.80;;;;;;20833404;28;20295;-71
2023/09/07 11:43:10;;;;;;;4.63;3.45;;;25.40;64.70;;;;;;20832346;28;20232;-71
2023/09/07 11:53:12;;;;;;;7.35;3.53;;;25.70;62.30;;;;;;20831405;28;20241;-71
2023/09/07 12:03:13;;;;;;;5.10;3.47;;;26.00;60.50;;;;;;20831370;28;20239;-71
2023/09/07 12:13:16;;;;;;;5.55;3.53;;;26.30;59.00;;;;;;20829857;28;20204;-71
2023/09/07 12:23:18;;;;;;;6.75;3.50;;;26.70;58.40;;;;;;20829344;28;20238;-70
2023/09/07 12:33:20;;;;;;;4.63;3.42;;;26.90;57.30;;;;;;20829036;28;20209;-71
2023/09/07 12:43:22;;;;;;;4.32;3.58;;;27.10;55.20;;;;;;20827093;28;20322;-71
2023/09/07 12:53:25;;;;;;;5.97;3.20;;;27.40;53.90;;;;;;20845470;28;20236;-71
2023/09/07 13:03:27;;;;;;;5.80;3.72;;;27.50;53.50;;;;;;20844053;28;20286;-71
2023/09/07 13:13:29;;;;;;;9.48;3.50;;;27.70;52.90;;;;;;20843374;28;20215;-70
2023/09/07 13:23:31;;;;;;;6.15;3.38;;;27.80;52.20;;;;;;20842381;28;20240;-71
2023/09/07 13:33:33;;;;;;;10.35;3.47;;;27.90;51.40;;;;;;20841800;28;20270;-71
2023/09/07 13:43:35;;;;;;;15.23;4.60;;;28.00;50.40;;;;;;20840898;28;20629;-71
2023/09/07 13:53:37;;;;;;;4.90;3.20;;;;;;;;;;20838859;28;20232;-71
2023/09/07 14:03:40;;;;;;;4.47;3.10;;;;;;;;;;20839729;28;20268;-71
2023/09/07 14:13:42;;;;;;;6.60;3.50;;;;;;;;;;20838616;28;20211;-71
2023/09/07 14:23:45;;;;;;;7.50;3.83;;;;;;;;;;20837739;28;20239;-71
2023/09/07 14:33:46;;;;;;;7.85;3.50;;;28.20;50.10;;;;;;20837592;28;20557;-71
2023/09/07 14:43:48;;;;;;;4.88;3.35;;;31.90;43.50;;;;;;20836333;28;20228;-70
2023/09/07 14:53:50;;;;;;;5.68;3.05;;;31.60;42.80;;;;;;20835390;28;20251;-71
2023/09/07 15:03:52;;;;;;;4.72;3.28;;;32.20;41.90;;;;;;20835039;28;20232;-71
2023/09/07 15:13:55;;;;;;;4.75;3.10;;;32.00;41.50;;;;;;20834741;28;20200;-71
2023/09/07 15:23:57;;;;;;;5.30;3.45;;;31.80;41.30;;;;;;20833308;28;20607;-71
2023/09/07 15:33:59;;;;;;;8.52;3.45;;;32.10;40.80;;;;;;20832093;28;20215;-70
2023/09/07 15:44:00;;;;;;;5.13;3.10;;;30.60;42.30;;;;;;20831932;28;20239;-70
2023/09/07 15:54:02;;;;;;;4.50;3.30;;;29.80;43.20;;;;;;20830654;28;20757;-67
2023/09/07 16:04:04;;;;;;;16.25;3.47;;;29.30;43.90;;;;;;20830526;28;20236;-68
2023/09/07 16:14:06;;;;;;;17.05;3.92;;;28.80;46.60;;;;;;20829241;28;20266;-64
2023/09/07 16:24:10;;;;;;;14.38;3.60;;;28.50;48.30;;;;;;20829413;28;20244;-76
2023/09/07 16:34:12;;;;;;;4.57;3.40;;;28.70;47.90;;;;;;20829069;28;20211;-76
2023/09/07 16:44:14;;;;;;;6.93;3.78;;;29.80;45.00;;;;;;20828917;28;20237;-77
2023/09/07 16:54:16;;;;;;;7.32;3.47;;;28.80;46.00;;;;;;20815426;28;20240;-72
2023/09/07 17:04:24;;;;;;;4.35;3.58;;;28.30;46.90;;;;;;20793268;28;20238;-75
2023/09/07 17:14:27;;;;;;;10.65;7.25;;;27.90;48.40;;;;;;20775989;28;20205;-74
2023/09/07 17:24:30;;;;;;;45.90;34.90;;;27.60;49.30;;;;;;20768906;28;20229;-70
2023/09/07 17:34:34;;;;;;;10.13;7.70;;;27.30;50.40;;;;;;20826136;28;20545;-74
2023/09/07 17:44:36;;;;;;;9.57;5.20;;;27.00;50.90;;;;;;20759181;28;20240;-75
2023/09/07 17:54:38;;;;;;;14.18;4.70;;;26.70;51.10;;;;;;20742808;28;20238;-72
2023/09/07 18:04:39;;;;;;;13.80;9.80;;;26.40;52.00;;;;;;20758086;28;20244;-72
2023/09/07 18:14:41;;;;;;;9.50;4.80;;;26.10;52.60;;;;;;20757157;28;20607;-70
2023/09/07 18:24:43;;;;;;;14.63;4.60;;;25.80;53.40;;;;;;20726282;28;20240;-71
2023/09/07 18:34:45;;;;;;;13.17;5.27;;;25.50;54.00;;;;;;20755141;28;20247;-71
2023/09/07 18:44:51;;;;;;;6.97;4.40;;;25.20;54.50;;;;;;20754745;28;20245;-72
2023/09/07 18:54:54;;;;;;;6.20;4.23;;;24.90;55.20;;;;;;20813261;28;20248;-71
2023/09/07 19:04:57;;;;;;;5.93;4.23;;;24.60;56.00;;;;;;20835201;28;20323;-75
2023/09/07 19:14:59;;;;;;;7.87;4.57;;;24.30;56.90;;;;;;20833868;28;20235;-73
2023/09/07 19:25:01;;;;;;;14.27;5.30;;;24.00;57.60;;;;;;20859072;28;20323;-73
2023/09/07 19:35:04;;;;;;;11.07;4.80;;;23.80;58.40;;;;;;20876964;28;20215;-74
2023/09/07 19:45:07;;;;;;;12.07;4.77;;;23.40;59.60;;;;;;20913033;28;20254;-73
2023/09/07 19:55:09;;;;;;;12.57;4.60;;;23.20;60.60;;;;;;20913705;28;20234;-71
2023/09/07 20:05:11;;;;;;;6.60;4.70;;;23.10;61.90;;;;;;20913425;28;20658;-72
2023/09/07 20:15:14;;;;;;;8.03;4.73;;;22.80;63.00;;;;;;20913067;28;20239;-74
2023/09/07 20:25:17;;;;;;;8.27;4.93;;;22.60;64.20;;;;;;20899824;28;20299;-73
2023/09/07 20:35:18;;;;;;;11.17;5.10;;;22.40;65.50;;;;;;20848255;28;20266;-72
2023/09/07 20:45:20;;;;;;;10.60;5.17;;;22.20;66.70;;;;;;20911905;28;20736;-72
2023/09/07 20:55:22;;;;;;;9.43;4.57;;;22.10;68.20;;;;;;20910822;28;20703;-72
2023/09/07 21:05:24;;;;;;;14.43;4.90;;;21.90;69.70;;;;;;20926659;28;20208;-72
2023/09/07 21:15:26;;;;;;;10.43;5.10;;;21.70;70.90;;;;;;20908764;28;20607;-73
2023/09/07 21:25:28;;;;;;;11.30;4.67;;;21.60;71.80;;;;;;20923319;28;20664;-72
2023/09/07 21:35:30;;;;;;;9.33;4.93;;;21.50;72.80;;;;;;20924489;28;20577;-73
2023/09/07 21:45:31;;;;;;;7.63;4.60;;;21.30;74.10;;;;;;20924233;28;20222;-73
2023/09/07 21:55:33;;;;;;;6.07;4.80;;;21.10;74.80;;;;;;20922187;28;20235;-73
2023/09/07 22:05:35;;;;;;;7.37;5.33;;;21.10;75.50;;;;;;20922869;28;20210;-72
2023/09/07 22:15:37;;;;;;;9.77;5.20;;;21.00;76.40;;;;;;20920995;28;20212;-73
2023/09/07 22:25:38;;;;;;;9.80;5.13;;;20.90;77.50;;;;;;20921102;28;20208;-73
2023/09/07 22:35:40;;;;;;;10.40;5.00;;;20.60;79.40;;;;;;20919965;28;20210;-73
2023/09/07 22:45:43;;;;;;;9.67;5.00;;;20.40;81.80;;;;;;20919668;28;20219;-71
2023/09/07 22:55:46;;;;;;;14.33;5.53;;;20.20;83.70;;;;;;20918473;28;20640;-72
2023/09/07 23:05:48;;;;;;;10.17;5.20;;;20.10;84.50;;;;;;20917630;28;20206;-72
2023/09/07 23:15:50;;;;;;;10.53;4.90;;;19.90;85.70;;;;;;20917057;28;20229;-72
2023/09/07 23:25:55;;;;;;;10.00;5.27;;;19.80;86.80;;;;;;20915867;28;20549;-71
2023/09/07 23:35:56;;;;;;;9.13;5.10;;;19.70;88.10;;;;;;20915349;28;20231;-71
2023/09/07 23:45:58;;;;;;;8.67;4.87;;;19.60;89.30;;;;;;20915058;28;20218;-72
2023/09/07 23:56:00;;;;;;;7.80;5.40;;;19.30;90.10;;;;;;20913806;28;20239;-74
